Time;durP1;ratioP1;P1;durP2;ratioP2;P2;SDS_P1;SDS_P2;PMS_P1;PMS_P2;Temp;Humidity;BMP_temperature;BMP_pressure;BME280_temperature;BME280_humidity;BME280_pressure;Samples;Min_cycle;Max_cycle;Signal;HPM_P1;HPM_P2
2022/04/15 00:00:43;;;;;;;3.13;0.85;;;20.70;72.70;;;;;;4095983;28;20180;-55
2022/04/15 00:02:45;;;;;;;11.57;1.85;;;20.70;72.70;;;;;;4100626;28;20092;-51
2022/04/15 00:04:47;;;;;;;10.13;1.73;;;20.70;72.70;;;;;;4111984;28;20939;-57
2022/04/15 00:06:49;;;;;;;4.55;1.70;;;20.80;72.40;;;;;;4115072;28;20719;-56
2022/04/15 00:08:52;;;;;;;8.45;2.20;;;20.70;72.80;;;;;;4102687;28;20172;-56
2022/04/15 00:10:57;;;;;;;3.78;1.80;;;20.80;72.10;;;;;;4106771;28;20838;-53
2022/04/15 00:13:01;;;;;;;2.75;1.70;;;20.80;72.00;;;;;;4090715;28;20108;-57
2022/04/15 00:15:03;;;;;;;;;;;20.80;71.90;;;;;;4092411;28;20721;-54
2022/04/15 00:17:05;;;;;;;2.60;1.60;;;20.90;71.90;;;;;;4089815;28;19933;-54
2022/04/15 00:19:09;;;;;;;4.57;1.92;;;20.90;71.80;;;;;;4092904;28;20124;-52
2022/04/15 00:21:11;;;;;;;2.85;1.48;;;20.90;71.80;;;;;;4088272;28;20148;-57
2022/04/15 00:23:14;;;;;;;3.65;1.77;;;20.90;71.80;;;;;;4087817;28;21369;-50
2022/04/15 00:25:16;;;;;;;3.17;1.90;;;20.90;71.70;;;;;;4085800;28;20117;-52
2022/04/15 00:27:18;;;;;;;4.00;1.80;;;20.90;71.60;;;;;;4103641;28;20057;-54
2022/04/15 00:29:21;;;;;;;8.27;1.90;;;20.90;71.80;;;;;;4108958;28;20057;-54
2022/04/15 00:31:24;;;;;;;3.90;1.70;;;21.00;71.60;;;;;;4082742;28;21145;-55
2022/04/15 00:33:26;;;;;;;4.50;1.80;;;21.00;71.60;;;;;;4066084;28;21005;-54
2022/04/15 00:35:28;;;;;;;4.10;1.73;;;21.00;71.50;;;;;;4107572;28;20053;-58
2022/04/15 00:37:31;;;;;;;3.55;1.88;;;21.00;71.40;;;;;;4104492;28;20060;-54
2022/04/15 00:39:35;;;;;;;3.22;1.80;;;21.00;71.40;;;;;;4101865;28;20479;-57
2022/04/15 00:41:37;;;;;;;2.88;1.80;;;21.00;71.40;;;;;;4075190;28;20701;-55
2022/04/15 00:43:39;;;;;;;2.58;1.60;;;21.10;71.40;;;;;;4076624;28;20089;-48
2022/04/15 00:45:41;;;;;;;4.00;1.80;;;21.10;71.20;;;;;;4083185;28;20153;-51
2022/04/15 00:48:00;;;;;;;4.50;1.48;;;21.10;71.10;;;;;;4101652;28;20572;-51
2022/04/15 00:50:03;;;;;;;3.58;1.75;;;21.10;70.90;;;;;;4101802;28;20056;-54
2022/04/15 00:52:08;;;;;;;5.38;1.60;;;21.10;70.80;;;;;;4072558;28;20093;-54
2022/04/15 00:54:16;;;;;;;2.88;1.75;;;21.10;70.80;;;;;;4079219;28;20609;-51
2022/04/15 00:56:18;;;;;;;3.22;1.48;;;21.10;70.90;;;;;;4081073;28;20057;-53
2022/04/15 00:58:22;;;;;;;3.58;1.58;;;21.10;70.90;;;;;;4070566;28;20098;-52
2022/04/15 01:00:27;;;;;;;2.53;1.30;;;21.10;70.80;;;;;;4085528;28;20086;-52
2022/04/15 01:02:30;;;;;;;3.90;1.55;;;21.10;70.90;;;;;;4083038;28;21132;-58
2022/04/15 01:04:32;;;;;;;;;;;21.10;71.00;;;;;;4089916;28;20346;-57
2022/04/15 01:06:36;;;;;;;4.40;1.33;;;21.10;71.30;;;;;;4085239;28;19976;-57
2022/04/15 01:08:41;;;;;;;3.10;1.67;;;21.20;71.40;;;;;;4082824;28;20058;-58
2022/04/15 01:10:47;;;;;;;6.90;1.35;;;21.30;71.30;;;;;;4103713;28;20465;-58
2022/04/15 01:13:07;;;;;;;3.63;1.40;;;21.40;71.10;;;;;;4094113;28;20061;-54
2022/04/15 01:15:13;;;;;;;1.98;1.02;;;21.50;71.00;;;;;;4087498;28;20072;-58
2022/04/15 01:17:15;;;;;;;2.15;1.25;;;21.60;71.00;;;;;;4094519;28;20141;-59
2022/04/15 01:19:18;;;;;;;2.80;1.10;;;21.60;70.70;;;;;;4088139;28;20920;-58
2022/04/15 01:21:24;;;;;;;2.55;1.10;;;21.70;70.70;;;;;;4083910;28;20141;-59
2022/04/15 01:23:26;;;;;;;4.03;1.00;;;21.70;70.50;;;;;;4072572;28;20778;-51
2022/04/15 01:25:29;;;;;;;2.75;1.40;;;21.80;70.10;;;;;;4112284;28;20053;-51
2022/04/15 01:27:36;;;;;;;3.38;1.63;;;21.80;70.00;;;;;;4105504;28;20050;-57
2022/04/15 01:29:40;;;;;;;4.32;1.33;;;21.80;70.00;;;;;;4084751;28;20437;-57
2022/04/15 01:31:42;;;;;;;3.05;1.65;;;21.80;69.90;;;;;;4105278;28;20049;-56
2022/04/15 01:33:45;;;;;;;3.00;1.57;;;21.80;69.80;;;;;;4094639;28;20089;-55
2022/04/15 01:35:47;;;;;;;4.17;1.30;;;21.80;69.80;;;;;;4087695;28;21144;-58
2022/04/15 01:37:50;;;;;;;1.85;1.00;;;21.80;69.80;;;;;;4103193;28;20077;-56
2022/04/15 01:39:52;;;;;;;2.20;1.20;;;21.80;69.90;;;;;;4111580;28;20052;-60
2022/04/15 01:41:57;;;;;;;1.50;1.08;;;21.90;70.10;;;;;;4095095;28;20053;-54
2022/04/15 01:43:59;;;;;;;2.40;1.20;;;21.90;69.90;;;;;;4072538;28;20104;-56
2022/04/15 01:46:01;;;;;;;2.67;1.38;;;21.90;69.80;;;;;;4069685;28;20117;-54
2022/04/15 01:48:03;;;;;;;2.85;1.50;;;22.00;69.70;;;;;;4093781;28;20054;-56
2022/04/15 01:50:07;;;;;;;2.80;1.03;;;22.00;69.60;;;;;;4083361;28;20061;-51
2022/04/15 01:52:10;;;;;;;1.65;0.90;;;22.00;69.50;;;;;;4087424;28;20169;-57
2022/04/15 01:54:13;;;;;;;1.73;1.33;;;22.00;69.40;;;;;;4110212;28;20081;-55
2022/04/15 01:56:15;;;;;;;1.88;0.85;;;22.00;69.40;;;;;;4111893;28;20164;-54
2022/04/15 01:58:18;;;;;;;2.38;1.20;;;22.00;69.30;;;;;;4103802;28;20375;-58
2022/04/15 02:00:20;;;;;;;1.52;0.82;;;22.00;69.30;;;;;;4103465;28;20144;-59
2022/04/15 02:02:25;;;;;;;2.08;1.10;;;22.00;69.30;;;;;;4098390;28;20696;-58
2022/04/15 02:04:28;;;;;;;3.03;1.10;;;22.10;70.10;;;;;;4090406;28;21024;-59
2022/04/15 02:06:30;;;;;;;3.10;1.15;;;22.10;70.20;;;;;;4104497;28;20049;-58
2022/04/15 02:08:32;;;;;;;1.00;0.70;;;22.10;70.40;;;;;;4105641;28;20840;-59
2022/04/15 02:10:35;;;;;;;1.55;0.88;;;22.20;70.70;;;;;;4095422;28;20084;-59
2022/04/15 02:12:37;;;;;;;2.72;0.82;;;22.20;70.60;;;;;;4087714;28;20066;-59
2022/04/15 02:14:39;;;;;;;3.35;0.80;;;22.30;70.70;;;;;;4088796;28;20734;-58
2022/04/15 02:16:42;;;;;;;1.77;1.13;;;22.30;70.60;;;;;;4112507;28;20128;-59
2022/04/15 02:18:44;;;;;;;1.85;0.85;;;22.40;70.60;;;;;;4087320;28;22317;-59
2022/04/15 02:20:46;;;;;;;1.75;0.90;;;22.40;70.40;;;;;;4083352;28;20160;-58
2022/04/15 02:22:50;;;;;;;1.60;0.80;;;22.40;70.40;;;;;;4091415;28;20137;-60
2022/04/15 02:24:52;;;;;;;4.32;1.13;;;22.50;70.50;;;;;;4110712;28;20061;-60
2022/04/15 02:26:54;;;;;;;0.90;0.65;;;22.50;70.40;;;;;;4099718;28;20145;-59
2022/04/15 02:28:57;;;;;;;0.95;0.80;;;22.50;70.30;;;;;;4085448;28;20535;-61
2022/04/15 02:30:59;;;;;;;1.00;0.60;;;22.60;70.50;;;;;;4079019;28;20450;-59
2022/04/15 02:33:02;;;;;;;12.80;2.30;;;22.60;70.40;;;;;;4073213;28;20792;-58
2022/04/15 02:35:04;;;;;;;17.60;2.45;;;22.60;70.30;;;;;;4104239;28;20065;-57
2022/04/15 02:37:07;;;;;;;38.22;3.42;;;22.60;70.30;;;;;;4108625;28;20061;-58
2022/04/15 02:39:12;;;;;;;19.87;2.73;;;22.70;70.60;;;;;;4108358;28;20061;-59
2022/04/15 02:41:15;;;;;;;9.07;2.00;;;22.70;70.60;;;;;;4103100;28;20450;-59
2022/04/15 02:43:18;;;;;;;7.00;1.45;;;22.70;70.60;;;;;;4106140;28;20090;-59
2022/04/15 02:45:21;;;;;;;9.32;1.80;;;22.80;70.50;;;;;;4113450;28;20081;-55
2022/04/15 02:47:24;;;;;;;13.80;1.88;;;22.80;70.50;;;;;;4111101;28;20053;-58
2022/04/15 02:49:27;;;;;;;3.78;1.30;;;22.90;70.40;;;;;;4104847;28;20155;-58
2022/04/15 02:51:30;;;;;;;11.63;1.85;;;22.90;70.30;;;;;;4089702;28;20862;-57
2022/04/15 02:53:33;;;;;;;5.78;1.33;;;22.90;70.10;;;;;;4095498;28;20053;-58
2022/04/15 02:55:35;;;;;;;7.50;1.50;;;22.90;69.80;;;;;;4101360;28;20061;-58
2022/04/15 02:57:37;;;;;;;5.43;1.40;;;22.90;69.60;;;;;;4105706;28;20060;-58
2022/04/15 02:59:39;;;;;;;5.20;1.40;;;22.90;69.40;;;;;;4111713;28;20328;-58
2022/04/15 03:01:41;;;;;;;3.97;1.10;;;22.90;69.30;;;;;;4107523;28;21407;-59
2022/04/15 03:03:43;;;;;;;1.45;0.75;;;22.90;69.20;;;;;;4088940;28;20059;-55
2022/04/15 03:05:45;;;;;;;4.82;1.35;;;22.90;69.10;;;;;;4111910;28;20121;-58
2022/04/15 03:07:47;;;;;;;2.30;0.80;;;22.90;69.00;;;;;;4111302;28;21089;-58
2022/04/15 03:09:50;;;;;;;2.85;0.98;;;22.90;68.90;;;;;;4103366;28;20137;-59
2022/04/15 03:11:52;;;;;;;4.87;0.80;;;22.90;68.70;;;;;;4107852;28;20050;-59
2022/04/15 03:13:54;;;;;;;1.20;0.90;;;22.90;68.70;;;;;;4108557;28;20050;-57
2022/04/15 03:15:56;;;;;;;8.35;1.23;;;22.90;68.70;;;;;;4090857;28;21228;-59
2022/04/15 03:17:58;;;;;;;2.67;0.80;;;23.00;68.60;;;;;;4089104;28;20097;-58
2022/04/15 03:20:03;;;;;;;1.83;0.82;;;23.00;68.60;;;;;;4097540;28;20069;-59
2022/04/15 03:22:05;;;;;;;2.65;0.73;;;23.00;68.60;;;;;;4093617;28;20057;-58
2022/04/15 03:24:07;;;;;;;1.80;0.80;;;23.00;68.50;;;;;;4106773;28;20649;-57
2022/04/15 03:26:10;;;;;;;3.15;1.20;;;23.00;68.50;;;;;;4078463;28;20109;-57
2022/04/15 03:28:13;;;;;;;2.47;0.80;;;23.00;68.40;;;;;;4087036;28;20061;-56
2022/04/15 03:30:15;;;;;;;1.83;0.50;;;23.10;68.30;;;;;;4113802;28;20155;-58
2022/04/15 03:32:17;;;;;;;0.83;0.70;;;23.10;68.20;;;;;;4086473;28;20088;-61
2022/04/15 03:34:19;;;;;;;1.48;0.70;;;23.10;68.20;;;;;;4108041;28;20057;-57
2022/04/15 03:36:22;;;;;;;0.80;0.50;;;23.20;68.10;;;;;;4113144;28;20092;-60
2022/04/15 03:38:24;;;;;;;0.80;0.55;;;23.20;68.00;;;;;;4094524;28;20069;-58
2022/04/15 03:40:26;;;;;;;0.38;0.38;;;23.20;67.90;;;;;;4088216;28;20150;-58
2022/04/15 03:42:29;;;;;;;0.85;0.60;;;23.30;67.90;;;;;;4081169;28;20529;-60
2022/04/15 03:44:31;;;;;;;0.65;0.60;;;23.30;67.70;;;;;;4115554;28;20057;-58
2022/04/15 03:46:34;;;;;;;1.27;0.57;;;23.40;67.60;;;;;;4108263;28;20157;-57
2022/04/15 03:48:36;;;;;;;1.38;0.70;;;23.50;67.50;;;;;;4095836;28;20161;-56
2022/04/15 03:50:38;;;;;;;0.55;0.50;;;23.50;67.50;;;;;;4099851;28;20577;-58
2022/04/15 03:52:45;;;;;;;1.20;0.60;;;23.50;67.40;;;;;;4113914;28;20060;-58
2022/04/15 03:54:48;;;;;;;1.30;0.68;;;23.60;67.20;;;;;;4110936;28;20054;-58
2022/04/15 03:56:50;;;;;;;3.55;0.82;;;23.60;67.10;;;;;;4079013;28;20055;-58
2022/04/15 03:58:52;;;;;;;0.93;0.60;;;23.70;67.00;;;;;;4102336;28;20061;-60
2022/04/15 04:00:54;;;;;;;0.77;0.77;;;23.70;67.50;;;;;;4115697;28;20311;-58
2022/04/15 04:02:57;;;;;;;1.40;0.60;;;23.80;66.80;;;;;;4099093;28;20343;-58
2022/04/15 04:04:59;;;;;;;1.17;0.70;;;23.80;66.50;;;;;;4119289;28;20053;-61
2022/04/15 04:07:01;;;;;;;0.75;0.50;;;23.90;66.50;;;;;;4103819;28;20069;-57
2022/04/15 04:09:03;;;;;;;1.50;0.70;;;24.00;66.40;;;;;;4095997;28;20056;-56
2022/04/15 04:11:06;;;;;;;0.90;0.60;;;24.00;66.30;;;;;;4100872;28;21100;-57
2022/04/15 04:13:08;;;;;;;1.15;0.65;;;24.10;66.20;;;;;;4111663;28;20129;-58
2022/04/15 04:15:13;;;;;;;0.35;0.32;;;24.10;66.00;;;;;;4113237;28;20062;-59
2022/04/15 04:17:15;;;;;;;0.70;0.60;;;24.20;65.80;;;;;;4113929;28;20086;-59
2022/04/15 04:19:17;;;;;;;1.08;0.60;;;24.20;65.70;;;;;;4115056;28;20073;-56
2022/04/15 04:21:20;;;;;;;0.47;0.40;;;24.30;65.70;;;;;;4107535;28;20338;-58
2022/04/15 04:23:22;;;;;;;0.47;0.47;;;24.40;65.50;;;;;;4102226;28;20061;-55
2022/04/15 04:25:25;;;;;;;0.85;0.55;;;24.40;65.40;;;;;;4105033;28;20388;-58
2022/04/15 04:27:27;;;;;;;0.85;0.60;;;24.50;65.20;;;;;;4099081;28;22060;-59
2022/04/15 04:29:29;;;;;;;0.70;0.70;;;24.50;65.00;;;;;;4101746;28;20550;-57
2022/04/15 04:31:32;;;;;;;0.82;0.50;;;24.60;64.90;;;;;;4102108;28;20138;-58
2022/04/15 04:33:34;;;;;;;0.57;0.30;;;24.70;64.80;;;;;;4104175;28;20169;-57
2022/04/15 04:35:39;;;;;;;0.70;0.37;;;24.70;64.60;;;;;;4097271;28;20073;-58
2022/04/15 04:37:41;;;;;;;0.35;0.35;;;24.80;64.60;;;;;;4094175;28;20303;-59
2022/04/15 04:39:43;;;;;;;1.67;0.57;;;24.80;64.40;;;;;;4096118;28;20574;-59
2022/04/15 04:41:46;;;;;;;0.50;0.50;;;24.90;64.20;;;;;;4099742;28;20482;-59
2022/04/15 04:43:49;;;;;;;0.30;0.30;;;25.00;64.10;;;;;;4092591;28;20481;-59
2022/04/15 04:45:51;;;;;;;;;;;25.10;63.90;;;;;;4096304;28;20425;-53
2022/04/15 04:47:55;;;;;;;1.17;0.77;;;25.10;63.80;;;;;;4102540;28;20016;-58
2022/04/15 04:49:58;;;;;;;0.30;0.30;;;25.20;63.60;;;;;;4096498;28;20050;-57
2022/04/15 04:52:00;;;;;;;0.63;0.30;;;25.20;63.50;;;;;;4093431;28;20042;-53
2022/04/15 04:54:02;;;;;;;0.40;0.40;;;25.10;63.50;;;;;;4093516;28;20081;-57
2022/04/15 04:56:05;;;;;;;1.17;0.75;;;25.10;63.70;;;;;;4098843;28;20054;-57
2022/04/15 04:58:07;;;;;;;0.68;0.40;;;25.10;63.80;;;;;;4095077;28;21009;-58
2022/04/15 05:00:11;;;;;;;0.68;0.40;;;25.00;63.90;;;;;;4108010;28;20073;-58
2022/04/15 05:02:13;;;;;;;0.40;0.40;;;25.00;64.10;;;;;;4088597;28;20472;-58
2022/04/15 05:04:16;;;;;;;0.57;0.50;;;24.90;64.10;;;;;;4115915;28;20101;-59
2022/04/15 05:06:18;;;;;;;0.63;0.50;;;24.90;64.20;;;;;;4092282;28;20072;-58
2022/04/15 10:10:22;;;;;;;1.42;0.80;;;24.20;66.40;;;;;;4098785;28;20067;-56
2022/04/15 10:12:25;;;;;;;1.15;0.82;;;24.20;66.50;;;;;;4099693;28;20054;-56
2022/04/15 10:14:28;;;;;;;1.27;0.80;;;24.20;66.50;;;;;;4095793;28;20133;-58
2022/04/15 10:16:32;;;;;;;0.98;0.70;;;24.10;66.50;;;;;;4100680;28;20473;-55
2022/04/15 10:18:35;;;;;;;0.93;0.70;;;24.10;66.50;;;;;;4115088;28;20093;-55
2022/04/15 10:20:38;;;;;;;0.85;0.77;;;24.10;66.50;;;;;;4113165;28;20452;-58
2022/04/15 10:22:41;;;;;;;1.15;0.70;;;24.10;66.60;;;;;;4113873;28;20065;-60
2022/04/15 10:24:43;;;;;;;0.73;0.65;;;24.10;66.60;;;;;;4114040;28;20100;-56
2022/04/15 10:26:52;;;;;;;1.27;0.90;;;24.10;66.60;;;;;;4115047;28;20080;-58
2022/04/15 10:28:54;;;;;;;1.20;0.70;;;24.10;66.60;;;;;;4098436;28;20908;-57
2022/04/15 10:31:15;;;;;;;1.45;0.70;;;24.10;66.70;;;;;;4098241;28;20062;-55
2022/04/15 10:33:33;;;;;;;0.85;0.70;;;24.10;66.60;;;;;;4116696;28;20581;-55
2022/04/15 10:35:36;;;;;;;1.38;0.70;;;24.10;66.70;;;;;;4109639;28;20062;-57
2022/04/15 10:37:56;;;;;;;0.90;0.77;;;24.10;66.60;;;;;;4116008;28;20065;-58
2022/04/15 10:39:58;;;;;;;2.15;1.13;;;24.10;66.70;;;;;;4115779;28;20448;-55
2022/04/15 10:42:04;;;;;;;0.95;0.70;;;24.00;66.70;;;;;;4115270;28;20062;-59
2022/04/15 10:44:06;;;;;;;2.60;1.00;;;24.00;66.70;;;;;;4114859;28;20137;-57
2022/04/15 10:46:15;;;;;;;2.90;1.02;;;24.00;66.60;;;;;;4099216;28;20090;-57
2022/04/15 10:48:30;;;;;;;1.35;0.80;;;24.00;66.70;;;;;;4114640;28;20113;-58
2022/04/15 10:50:35;;;;;;;1.20;0.75;;;24.00;66.70;;;;;;4115302;28;20482;-57
2022/04/15 10:52:38;;;;;;;1.58;0.90;;;24.00;66.60;;;;;;4115714;28;20377;-54
2022/04/15 10:54:45;;;;;;;1.65;0.77;;;24.00;66.70;;;;;;4115551;28;20054;-56
2022/04/15 10:57:05;;;;;;;1.55;0.98;;;24.00;66.70;;;;;;4098869;28;20102;-55
2022/04/15 11:01:27;;;;;;;1.17;0.85;;;24.00;66.70;;;;;;4096823;28;20145;-58
2022/04/15 11:03:32;;;;;;;2.88;1.02;;;24.00;66.70;;;;;;4115609;28;20042;-56
2022/04/15 11:05:42;;;;;;;1.77;0.90;;;23.90;66.70;;;;;;4113558;28;20047;-57
2022/04/15 11:07:58;;;;;;;1.90;1.02;;;23.90;66.80;;;;;;4091810;28;20531;-55
2022/04/15 11:10:00;;;;;;;3.28;0.95;;;23.90;66.80;;;;;;4118344;28;20152;-55
2022/04/15 11:12:06;;;;;;;1.95;0.95;;;23.90;66.80;;;;;;4117116;28;20058;-57
2022/04/15 11:14:13;;;;;;;2.20;1.13;;;23.90;66.70;;;;;;4125978;28;20050;-62
2022/04/15 11:16:18;;;;;;;1.70;0.85;;;23.90;66.80;;;;;;4118688;28;20698;-60
2022/04/15 11:18:20;;;;;;;1.98;0.80;;;23.80;66.80;;;;;;4118395;28;20050;-59
2022/04/15 11:20:24;;;;;;;1.20;0.80;;;23.80;66.80;;;;;;4118453;28;20115;-57
2022/04/15 11:22:26;;;;;;;2.08;1.20;;;23.80;66.80;;;;;;4110430;28;20063;-59
2022/04/15 11:24:32;;;;;;;1.55;0.82;;;23.80;66.80;;;;;;4113155;28;20902;-60
2022/04/15 11:26:35;;;;;;;1.25;0.85;;;23.80;66.90;;;;;;4118666;28;20116;-55
2022/04/15 11:28:39;;;;;;;2.13;1.13;;;23.80;66.90;;;;;;4113537;28;20487;-58
2022/04/15 11:30:43;;;;;;;1.45;0.95;;;23.80;66.90;;;;;;4108638;28;20081;-54
2022/04/15 11:32:53;;;;;;;1.33;0.90;;;23.80;66.90;;;;;;4113278;28;20518;-58
2022/04/15 11:34:56;;;;;;;2.42;1.38;;;23.80;66.90;;;;;;4114936;28;20074;-54
2022/04/15 11:37:04;;;;;;;1.40;0.90;;;23.80;67.00;;;;;;4102490;28;20463;-58
2022/04/15 11:39:09;;;;;;;2.55;0.98;;;23.80;67.00;;;;;;4100761;28;20371;-56
2022/04/15 11:41:15;;;;;;;2.17;1.30;;;23.70;66.90;;;;;;4113185;28;20541;-58
2022/04/15 11:43:25;;;;;;;1.48;0.95;;;23.80;67.00;;;;;;4114267;28;20581;-55
2022/04/15 11:45:35;;;;;;;1.95;1.10;;;23.70;66.90;;;;;;4110148;28;20177;-58
2022/04/15 11:47:37;;;;;;;1.90;0.90;;;23.70;67.00;;;;;;4102097;28;20050;-55
2022/04/15 11:49:42;;;;;;;1.58;0.90;;;23.70;67.00;;;;;;4103649;28;20058;-57
2022/04/15 11:51:50;;;;;;;1.15;1.02;;;23.70;67.00;;;;;;4107194;28;20142;-54
2022/04/15 11:53:54;;;;;;;1.25;0.80;;;23.70;67.10;;;;;;4114300;28;20061;-56
2022/04/15 11:56:01;;;;;;;1.83;1.30;;;23.70;67.10;;;;;;4111780;28;20260;-59
2022/04/15 11:58:03;;;;;;;2.53;1.02;;;23.60;67.10;;;;;;4105520;28;20061;-54
2022/04/15 12:00:06;;;;;;;1.00;0.90;;;23.60;67.00;;;;;;4091569;28;20095;-57
2022/04/15 12:02:09;;;;;;;1.00;0.80;;;23.60;67.00;;;;;;4111931;28;20149;-53
2022/04/15 12:04:12;;;;;;;1.48;1.08;;;23.60;67.00;;;;;;4109169;28;20104;-56
2022/04/15 12:06:14;;;;;;;2.03;1.00;;;23.60;67.10;;;;;;4112849;28;20051;-58
2022/04/15 12:08:17;;;;;;;2.28;1.35;;;23.60;67.20;;;;;;4095401;28;20062;-56
2022/04/15 12:10:24;;;;;;;1.25;1.02;;;23.60;67.10;;;;;;4113971;28;20505;-57
2022/04/15 12:12:26;;;;;;;2.47;1.48;;;23.60;67.20;;;;;;4114055;28;20089;-58
2022/04/15 12:14:39;;;;;;;1.60;1.27;;;23.60;67.10;;;;;;4094169;28;20812;-58
2022/04/15 12:16:42;;;;;;;1.65;1.20;;;23.60;67.20;;;;;;4112806;28;20050;-56
2022/04/15 12:18:45;;;;;;;1.52;1.13;;;23.60;67.20;;;;;;4114640;28;20141;-58
2022/04/15 12:20:47;;;;;;;1.80;1.05;;;23.60;67.10;;;;;;4114260;28;20817;-57
2022/04/15 12:22:49;;;;;;;1.90;1.30;;;23.60;67.20;;;;;;4115810;28;20100;-54
2022/04/15 12:24:51;;;;;;;3.40;1.43;;;23.60;67.20;;;;;;4116851;28;20058;-57
2022/04/15 12:26:54;;;;;;;1.73;1.33;;;23.50;67.20;;;;;;4116266;28;20109;-57
2022/04/15 12:31:31;;;;;;;2.58;1.48;;;23.50;67.20;;;;;;4100960;28;20561;-56
2022/04/15 12:33:34;;;;;;;3.03;1.58;;;23.50;67.30;;;;;;4113997;28;20053;-57
2022/04/15 12:35:37;;;;;;;3.53;1.63;;;23.50;67.20;;;;;;4085698;28;20082;-58
2022/04/15 12:37:41;;;;;;;2.13;1.40;;;23.50;67.20;;;;;;4117312;28;20304;-54
2022/04/15 12:39:53;;;;;;;3.05;1.70;;;23.50;67.20;;;;;;4115822;28;20408;-58
2022/04/15 12:41:55;;;;;;;2.03;1.48;;;23.50;67.20;;;;;;4117995;28;20533;-60
2022/04/15 12:44:23;;;;;;;2.00;1.40;;;23.50;67.20;;;;;;4117746;28;20584;-56
2022/04/15 12:46:29;;;;;;;2.10;1.50;;;23.40;67.30;;;;;;4117805;28;20085;-58
2022/04/15 12:48:32;;;;;;;2.22;1.50;;;23.40;67.30;;;;;;4100077;28;20055;-59
2022/04/15 12:50:36;;;;;;;2.10;1.42;;;23.40;67.20;;;;;;4116810;28;20059;-57
2022/04/15 12:52:42;;;;;;;2.70;1.73;;;23.40;67.30;;;;;;4116157;28;20760;-57
2022/04/15 12:55:05;;;;;;;2.42;1.60;;;23.40;67.30;;;;;;4116080;28;20098;-55
2022/04/15 12:57:09;;;;;;;9.30;1.70;;;23.40;67.10;;;;;;4114773;28;20050;-56
2022/04/15 12:59:11;;;;;;;3.40;1.60;;;23.40;67.20;;;;;;4115643;28;20112;-57
2022/04/15 13:01:13;;;;;;;2.33;1.50;;;23.40;67.30;;;;;;4113200;28;20066;-56
2022/04/15 13:03:17;;;;;;;2.33;1.40;;;23.40;67.50;;;;;;4116361;28;20054;-58
2022/04/15 13:05:19;;;;;;;3.40;1.27;;;23.30;67.40;;;;;;4117707;28;20457;-58
2022/04/15 13:07:22;;;;;;;3.65;1.60;;;23.40;67.60;;;;;;4116058;28;20124;-61
2022/04/15 13:09:24;;;;;;;2.97;1.40;;;23.40;67.70;;;;;;4120751;28;20050;-61
2022/04/15 13:11:26;;;;;;;4.20;1.15;;;23.40;68.50;;;;;;4117975;28;20058;-61
2022/04/15 13:13:29;;;;;;;8.07;1.90;;;23.40;68.10;;;;;;4117999;28;20046;-59
2022/04/15 13:15:31;;;;;;;2.17;1.50;;;23.40;68.10;;;;;;4119750;28;20787;-60
2022/04/15 13:17:39;;;;;;;2.80;1.40;;;23.30;68.10;;;;;;4118633;28;20066;-61
2022/04/15 13:19:43;;;;;;;2.65;1.40;;;23.40;68.20;;;;;;4120561;28;20046;-57
2022/04/15 13:21:45;;;;;;;4.53;1.52;;;23.40;68.90;;;;;;4104064;28;20058;-59
2022/04/15 13:23:48;;;;;;;13.63;1.58;;;23.40;68.50;;;;;;4118577;28;20058;-57
2022/04/15 13:25:52;;;;;;;6.72;1.60;;;23.40;68.60;;;;;;4119901;28;20132;-56
2022/04/15 13:27:54;;;;;;;9.23;1.60;;;23.40;68.50;;;;;;4119168;28;20410;-59
2022/04/15 13:29:58;;;;;;;12.13;1.67;;;23.40;68.60;;;;;;4122978;28;20050;-57
2022/04/15 13:32:01;;;;;;;3.10;1.65;;;23.40;68.60;;;;;;4122208;28;20053;-58
2022/04/15 13:34:03;;;;;;;5.63;1.70;;;23.40;68.60;;;;;;4122453;28;20101;-58
2022/04/15 13:36:05;;;;;;;2.78;1.23;;;23.40;68.70;;;;;;4110196;28;20043;-59
2022/04/15 13:38:08;;;;;;;4.55;1.40;;;23.40;68.70;;;;;;4122452;28;20454;-58
2022/04/15 13:40:10;;;;;;;2.80;1.70;;;23.40;68.70;;;;;;4118706;28;20062;-58
2022/04/15 13:42:13;;;;;;;2.33;1.35;;;23.40;68.70;;;;;;4118510;28;20070;-59
2022/04/15 13:44:15;;;;;;;5.25;1.40;;;23.40;68.70;;;;;;4118270;28;20990;-56
2022/04/15 13:46:17;;;;;;;7.82;1.60;;;23.40;68.70;;;;;;4119210;28;20085;-57
2022/04/15 13:48:20;;;;;;;6.35;1.10;;;23.40;68.80;;;;;;4117827;28;20584;-55
2022/04/15 13:50:22;;;;;;;7.65;1.75;;;23.40;68.80;;;;;;4117780;28;20050;-58
2022/04/15 13:57:05;;;;;;;9.10;2.30;;;23.40;68.90;;;;;;4115857;28;20054;-58
2022/04/15 13:59:10;;;;;;;10.53;1.97;;;23.40;68.90;;;;;;4113156;28;20093;-58
2022/04/15 14:01:23;;;;;;;3.33;1.40;;;23.40;68.90;;;;;;4115758;28;20521;-58
2022/04/15 14:03:25;;;;;;;10.23;1.73;;;23.50;69.00;;;;;;4116143;28;20059;-58
2022/04/15 14:05:27;;;;;;;7.90;2.15;;;23.50;69.00;;;;;;4116437;28;20046;-57
2022/04/15 14:07:30;;;;;;;9.90;2.20;;;23.40;68.90;;;;;;4117014;28;20153;-58
2022/04/15 14:09:32;;;;;;;4.07;1.25;;;23.50;68.90;;;;;;4115145;28;21017;-59
2022/04/15 14:11:43;;;;;;;6.28;1.30;;;23.40;68.70;;;;;;4116443;28;20057;-57
2022/04/15 14:13:45;;;;;;;4.38;1.58;;;23.40;68.70;;;;;;4115749;28;20510;-59
2022/04/15 14:15:47;;;;;;;2.90;1.40;;;23.40;68.70;;;;;;4115986;28;20081;-58
2022/04/15 14:17:50;;;;;;;2.28;1.38;;;23.40;68.80;;;;;;4116954;28;20058;-59
2022/04/15 14:19:52;;;;;;;2.28;1.30;;;23.40;68.70;;;;;;4117233;28;20043;-57
2022/04/15 14:21:54;;;;;;;7.28;1.52;;;23.40;68.70;;;;;;4098573;28;20058;-59
2022/04/15 14:23:57;;;;;;;2.88;1.05;;;23.40;68.80;;;;;;4115754;28;20098;-60
2022/04/15 14:25:59;;;;;;;6.57;1.40;;;23.40;68.70;;;;;;4116483;28;20086;-59
2022/04/15 14:28:01;;;;;;;2.10;1.20;;;23.40;68.80;;;;;;4116573;28;20054;-58
2022/04/15 14:30:04;;;;;;;2.80;1.60;;;23.30;68.90;;;;;;4108795;28;20567;-59
2022/04/15 14:32:07;;;;;;;3.27;1.00;;;23.30;68.80;;;;;;4107264;28;20054;-60
2022/04/15 14:34:10;;;;;;;3.28;1.17;;;23.40;68.90;;;;;;4111468;28;20315;-57
2022/04/15 14:36:12;;;;;;;1.52;1.00;;;23.30;68.80;;;;;;4115978;28;20160;-55
2022/04/15 14:38:14;;;;;;;4.28;1.38;;;23.30;68.80;;;;;;4116112;28;20121;-57
2022/04/15 14:40:16;;;;;;;3.45;1.67;;;23.30;69.10;;;;;;4116417;28;20054;-58
2022/04/15 14:42:18;;;;;;;3.60;1.20;;;23.30;69.10;;;;;;4114637;28;20057;-58
2022/04/15 14:44:21;;;;;;;3.47;1.45;;;23.30;69.20;;;;;;4116337;28;20482;-56
2022/04/15 14:46:23;;;;;;;4.97;1.40;;;23.30;69.20;;;;;;4116207;28;20054;-57
2022/04/15 14:48:26;;;;;;;10.77;1.50;;;23.30;69.10;;;;;;4116414;28;20430;-59
2022/04/15 14:50:29;;;;;;;3.67;0.98;;;23.30;69.10;;;;;;4115955;28;20057;-58
2022/04/15 14:52:31;;;;;;;6.00;1.38;;;23.20;69.10;;;;;;4115797;28;20784;-58
2022/04/15 14:54:34;;;;;;;5.40;1.55;;;23.30;69.10;;;;;;4115504;28;20153;-58
2022/04/15 14:56:36;;;;;;;3.67;1.10;;;23.30;69.10;;;;;;4116197;28;20054;-59
2022/04/15 14:58:38;;;;;;;5.63;1.48;;;23.30;69.20;;;;;;4115944;28;20058;-58
2022/04/15 15:00:41;;;;;;;2.17;1.50;;;23.30;69.20;;;;;;4115190;28;20065;-59
2022/04/15 15:02:43;;;;;;;1.77;1.33;;;23.30;69.10;;;;;;4116729;28;20057;-57
2022/04/15 15:04:45;;;;;;;3.90;1.33;;;23.30;69.20;;;;;;4114799;28;20114;-55
2022/04/15 15:06:47;;;;;;;2.47;1.17;;;23.20;69.10;;;;;;4115905;28;20062;-54
2022/04/15 15:08:50;;;;;;;3.17;0.93;;;23.20;69.20;;;;;;4115448;28;20054;-55
2022/04/15 15:10:53;;;;;;;1.90;1.30;;;23.20;69.20;;;;;;4113651;28;20054;-56
2022/04/15 15:12:55;;;;;;;;;;;23.20;69.10;;;;;;4116545;28;20409;-57
2022/04/15 15:14:57;;;;;;;3.60;1.30;;;23.20;69.20;;;;;;4115251;28;19928;-59
2022/04/15 15:17:00;;;;;;;9.38;1.50;;;23.20;69.40;;;;;;4115697;28;20069;-58
2022/04/15 15:19:02;;;;;;;3.30;1.70;;;23.20;69.60;;;;;;4104129;28;20062;-59
2022/04/15 15:21:04;;;;;;;4.30;1.50;;;23.20;69.50;;;;;;4110806;28;20066;-58
2022/04/15 15:23:06;;;;;;;2.70;1.58;;;23.20;69.40;;;;;;4116926;28;20062;-59
2022/04/15 15:29:50;;;;;;;9.27;1.38;;;23.20;69.60;;;;;;4116916;28;20098;-57
2022/04/15 15:31:52;;;;;;;4.80;1.30;;;23.20;69.40;;;;;;4117102;28;20054;-58
2022/04/15 15:33:54;;;;;;;2.10;1.38;;;23.20;69.40;;;;;;4114991;28;20205;-58
2022/04/15 15:35:56;;;;;;;3.33;1.70;;;23.20;69.30;;;;;;4115202;28;20143;-59
2022/04/15 15:37:59;;;;;;;6.40;1.73;;;23.20;69.50;;;;;;4108892;28;20047;-55
2022/04/15 15:40:03;;;;;;;4.50;1.45;;;23.20;69.50;;;;;;4108478;28;20097;-54
2022/04/15 15:42:06;;;;;;;3.08;1.38;;;23.20;69.50;;;;;;4113744;28;20134;-58
2022/04/15 15:44:08;;;;;;;4.60;1.33;;;23.20;69.50;;;;;;4119568;28;20217;-55
2022/04/15 15:46:11;;;;;;;2.65;1.40;;;23.10;69.60;;;;;;4132698;28;20045;-57
2022/04/15 15:48:14;;;;;;;6.97;1.40;;;23.10;69.40;;;;;;4112266;28;20077;-57
2022/04/15 15:50:16;;;;;;;4.93;1.53;;;23.10;69.40;;;;;;4119865;28;20054;-59
2022/04/15 15:52:18;;;;;;;8.30;1.38;;;23.10;69.40;;;;;;4119357;28;20098;-55
2022/04/15 15:54:20;;;;;;;8.18;2.28;;;23.10;69.60;;;;;;4121076;28;20165;-60
2022/04/15 15:56:22;;;;;;;5.18;1.70;;;23.10;69.90;;;;;;4117419;28;20565;-60
2022/04/15 15:58:24;;;;;;;6.22;1.92;;;23.10;69.70;;;;;;4132149;28;20049;-59
2022/04/15 16:00:26;;;;;;;7.95;1.42;;;23.10;69.60;;;;;;4109317;28;20106;-59